Time;durP1;ratioP1;P1;durP2;ratioP2;P2;SDS_P1;SDS_P2;PMS_P1;PMS_P2;Temp;Humidity;BMP_temperature;BMP_pressure;BME280_temperature;BME280_humidity;BME280_pressure;Samples;Min_cycle;Max_cycle;Signal;HPM_P1;HPM_P2
2021/09/15 00:00:41;;;;;;;8.52;5.07;;;20.70;99.90;;;;;;5071861;28;20578;-77
2021/09/15 00:03:07;;;;;;;6.95;5.25;;;20.10;99.90;;;;;;5071492;28;20025;-77
2021/09/15 00:05:32;;;;;;;7.00;5.18;;;19.90;99.90;;;;;;5072073;28;20035;-77
2021/09/15 00:07:58;;;;;;;6.93;4.80;;;20.00;99.90;;;;;;5066453;28;20021;-77
2021/09/15 00:10:23;;;;;;;6.22;5.07;;;19.80;99.90;;;;;;5051677;28;20067;-77
2021/09/15 00:12:49;;;;;;;11.20;5.55;;;19.80;99.90;;;;;;5065804;28;20377;-77
2021/09/15 00:15:15;;;;;;;7.32;4.70;;;19.80;99.90;;;;;;5072116;28;20107;-77
2021/09/15 00:17:40;;;;;;;6.97;5.35;;;19.90;99.90;;;;;;5071853;28;20481;-78
2021/09/15 00:20:08;;;;;;;5.75;4.82;;;20.00;99.90;;;;;;5070114;28;20040;-78
2021/09/15 00:22:34;;;;;;;6.90;4.72;;;19.80;99.90;;;;;;5070715;28;20408;-77
2021/09/15 00:25:00;;;;;;;7.82;5.30;;;19.80;99.90;;;;;;5072005;28;20495;-78
2021/09/15 00:27:25;;;;;;;9.07;5.47;;;20.00;99.90;;;;;;5071895;28;20037;-77
2021/09/15 00:29:51;;;;;;;8.10;4.93;;;20.10;99.90;;;;;;5071269;28;20028;-77
2021/09/15 00:32:16;;;;;;;6.50;5.20;;;19.80;99.90;;;;;;5071848;28;20029;-77
2021/09/15 00:34:42;;;;;;;12.10;5.50;;;19.90;99.90;;;;;;5071675;28;20066;-77
2021/09/15 00:37:08;;;;;;;6.70;4.80;;;19.90;99.90;;;;;;5087401;28;20029;-77
2021/09/15 00:39:33;;;;;;;5.93;4.70;;;19.90;99.90;;;;;;5071158;28;20480;-77
2021/09/15 00:41:59;;;;;;;8.95;5.25;;;19.90;99.90;;;;;;5071641;28;20504;-77
2021/09/15 00:44:24;;;;;;;5.82;4.93;;;20.00;99.90;;;;;;5071657;28;20035;-77
2021/09/15 00:46:51;;;;;;;5.97;4.55;;;19.90;99.90;;;;;;5071755;28;20036;-77
2021/09/15 00:49:16;;;;;;;6.78;4.60;;;20.10;99.90;;;;;;5070870;28;20032;-77
2021/09/15 00:51:43;;;;;;;6.00;4.60;;;20.10;99.90;;;;;;5071461;28;20078;-77
2021/09/15 00:54:10;;;;;;;6.70;5.40;;;19.90;99.90;;;;;;5071600;28;20063;-77
2021/09/15 00:56:36;;;;;;;7.97;5.72;;;19.90;99.90;;;;;;5071639;28;20033;-77
2021/09/15 00:59:02;;;;;;;9.57;4.88;;;20.20;99.90;;;;;;5070877;28;20035;-77
2021/09/15 01:01:28;;;;;;;5.22;4.38;;;20.10;99.90;;;;;;5071575;28;20103;-78
2021/09/15 01:03:54;;;;;;;8.23;4.38;;;20.10;99.90;;;;;;5071339;28;20081;-77
2021/09/15 01:06:20;;;;;;;7.90;5.07;;;20.10;99.90;;;;;;5071625;28;20044;-77
2021/09/15 01:08:46;;;;;;;8.25;5.13;;;20.10;99.90;;;;;;5071291;28;20037;-77
2021/09/15 01:11:13;;;;;;;7.82;4.72;;;20.70;99.90;;;;;;5071215;28;20493;-77
2021/09/15 01:13:40;;;;;;;6.13;5.10;;;20.30;99.90;;;;;;5071373;28;20028;-78
2021/09/15 01:16:06;;;;;;;8.23;4.57;;;20.10;99.90;;;;;;5071457;28;20048;-77
2021/09/15 01:18:31;;;;;;;5.78;4.60;;;20.10;99.90;;;;;;5071306;28;20025;-78
2021/09/15 01:20:57;;;;;;;5.78;4.90;;;20.30;99.90;;;;;;5074369;28;20052;-77
2021/09/15 01:23:23;;;;;;;6.05;5.00;;;20.10;99.90;;;;;;5075212;28;20025;-77
2021/09/15 01:25:49;;;;;;;5.43;4.82;;;19.90;99.90;;;;;;5075393;28;20100;-77
2021/09/15 01:28:15;;;;;;;10.65;5.60;;;19.90;99.90;;;;;;5075257;28;20056;-78
2021/09/15 01:30:41;;;;;;;7.72;5.20;;;19.90;99.90;;;;;;5074950;28;20400;-77
2021/09/15 01:33:16;;;;;;;6.57;4.18;;;20.10;99.90;;;;;;5074931;28;20032;-77
2021/09/15 01:35:43;;;;;;;5.07;3.60;;;19.80;99.90;;;;;;5074927;28;20031;-77
2021/09/15 01:38:10;;;;;;;5.85;3.78;;;20.50;99.90;;;;;;5075062;28;20056;-77
2021/09/15 01:40:36;;;;;;;4.55;3.67;;;20.50;99.90;;;;;;5074828;28;20033;-77
2021/09/15 01:43:03;;;;;;;6.93;3.92;;;20.00;99.90;;;;;;5064376;28;20024;-77
2021/09/15 01:45:28;;;;;;;5.60;3.90;;;19.90;99.90;;;;;;5074937;28;20021;-77
2021/09/15 01:47:54;;;;;;;9.23;4.28;;;20.10;99.90;;;;;;5074657;28;20054;-76
2021/09/15 01:50:20;;;;;;;9.05;4.45;;;19.70;99.90;;;;;;5074017;28;20024;-78
2021/09/15 01:52:45;;;;;;;4.78;3.95;;;19.60;99.90;;;;;;5074471;28;20412;-77
2021/09/15 01:55:25;;;;;;;5.57;4.13;;;19.50;99.90;;;;;;5075644;28;20040;-77
2021/09/15 01:57:51;;;;;;;7.97;4.95;;;19.60;99.90;;;;;;5075051;28;20518;-78
2021/09/15 02:00:17;;;;;;;8.13;4.97;;;19.30;99.90;;;;;;5074109;28;20028;-78
2021/09/15 02:02:44;;;;;;;7.13;4.53;;;19.30;99.90;;;;;;5074396;28;20032;-78
2021/09/15 02:05:10;;;;;;;9.05;5.07;;;19.40;99.90;;;;;;5073143;28;20051;-77
2021/09/15 02:07:36;;;;;;;10.20;4.80;;;19.00;99.90;;;;;;5074714;28;20389;-77
2021/09/15 02:10:04;;;;;;;8.32;5.03;;;19.80;99.90;;;;;;5075179;28;20028;-78
2021/09/15 02:12:30;;;;;;;6.18;5.28;;;19.10;99.90;;;;;;5074905;28;20029;-77
2021/09/15 02:14:55;;;;;;;10.15;4.85;;;19.00;99.90;;;;;;5073690;28;20029;-77
2021/09/15 02:17:21;;;;;;;5.88;5.22;;;19.00;99.90;;;;;;5074389;28;20079;-78
2021/09/15 02:19:47;;;;;;;7.95;5.65;;;19.50;99.90;;;;;;5073629;28;20029;-77
2021/09/15 02:22:12;;;;;;;8.70;5.82;;;19.10;99.90;;;;;;5074355;28;20025;-78
2021/09/15 02:24:38;;;;;;;6.22;5.05;;;19.30;99.90;;;;;;5074291;28;20103;-77
2021/09/15 02:27:03;;;;;;;10.02;5.55;;;19.00;99.90;;;;;;5072980;28;20034;-77
2021/09/15 02:29:29;;;;;;;7.80;5.60;;;18.80;99.90;;;;;;5073417;28;20488;-77
2021/09/15 02:31:54;;;;;;;7.88;6.00;;;18.80;99.90;;;;;;5073474;28;20082;-77
2021/09/15 02:34:20;;;;;;;7.15;5.88;;;18.70;99.90;;;;;;5073810;28;20560;-77
2021/09/15 02:36:45;;;;;;;14.63;6.72;;;18.70;99.90;;;;;;5072915;28;20039;-77
2021/09/15 02:39:11;;;;;;;7.47;5.72;;;18.70;99.90;;;;;;5073409;28;20068;-78
2021/09/15 02:41:37;;;;;;;6.90;5.55;;;19.70;99.90;;;;;;5069746;28;20037;-78
2021/09/15 02:44:02;;;;;;;9.00;5.75;;;19.00;99.90;;;;;;5104090;22;20040;-79
2021/09/15 02:46:31;;;;;;;8.90;5.60;;;18.70;99.90;;;;;;5099097;28;21102;-77
2021/09/15 02:48:57;;;;;;;8.15;5.65;;;19.00;99.90;;;;;;5099209;28;20023;-78
2021/09/15 02:51:23;;;;;;;9.35;5.93;;;19.00;99.90;;;;;;5098578;28;20037;-79
2021/09/15 02:53:49;;;;;;;7.15;5.50;;;18.70;99.90;;;;;;5118190;28;20063;-81
2021/09/15 02:56:14;;;;;;;7.45;5.20;;;18.80;99.90;;;;;;5083709;28;20084;-79
2021/09/15 02:58:40;;;;;;;12.10;6.13;;;18.70;99.90;;;;;;5100260;28;20051;-80
2021/09/15 03:01:05;;;;;;;10.32;6.05;;;19.30;99.90;;;;;;5083455;28;20027;-79
2021/09/15 03:03:31;;;;;;;11.40;6.28;;;18.70;99.90;;;;;;5083516;28;20024;-80
2021/09/15 03:05:56;;;;;;;8.60;5.57;;;18.80;99.90;;;;;;5100141;28;20177;-79
2021/09/15 03:08:23;;;;;;;8.23;5.85;;;18.80;99.90;;;;;;5100345;28;20036;-79
2021/09/15 03:10:48;;;;;;;7.45;5.68;;;18.80;99.90;;;;;;5099281;28;20096;-78
2021/09/15 03:13:14;;;;;;;7.57;5.80;;;18.80;99.90;;;;;;5079178;28;20095;-80
2021/09/15 03:15:39;;;;;;;11.93;5.85;;;18.80;99.90;;;;;;5097983;28;20024;-79
2021/09/15 03:18:05;;;;;;;9.77;5.60;;;18.70;99.90;;;;;;5079744;28;20028;-80
2021/09/15 03:20:31;;;;;;;11.18;5.47;;;18.80;99.90;;;;;;5097029;28;20056;-79
2021/09/15 03:22:56;;;;;;;11.50;6.22;;;18.90;99.90;;;;;;5097498;28;20028;-79
2021/09/15 03:25:22;;;;;;;8.65;6.25;;;18.80;99.90;;;;;;5096497;28;20027;-78
2021/09/15 03:27:47;;;;;;;9.23;5.53;;;18.80;99.90;;;;;;5063436;28;20077;-81
2021/09/15 03:30:13;;;;;;;8.60;5.70;;;18.90;99.90;;;;;;5082390;28;20043;-78
2021/09/15 03:32:39;;;;;;;12.10;5.53;;;18.90;99.90;;;;;;5084198;28;20028;-79
2021/09/15 03:35:05;;;;;;;9.98;5.57;;;19.10;99.90;;;;;;5083755;28;20095;-78
2021/09/15 03:37:31;;;;;;;7.75;5.57;;;18.90;99.90;;;;;;5084801;28;20081;-80
2021/09/15 03:39:56;;;;;;;7.95;6.03;;;18.80;99.90;;;;;;5063903;28;20122;-79
2021/09/15 03:42:22;;;;;;;8.35;5.75;;;18.90;99.90;;;;;;5065019;28;20024;-80
2021/09/15 03:44:48;;;;;;;7.95;5.90;;;19.10;99.90;;;;;;5078447;28;20122;-78
2021/09/15 03:47:13;;;;;;;9.90;5.32;;;18.80;99.90;;;;;;5096414;28;20085;-80
2021/09/15 03:49:39;;;;;;;8.32;5.95;;;18.90;99.90;;;;;;5077641;28;20420;-80
2021/09/15 03:52:05;;;;;;;7.70;5.97;;;19.30;99.90;;;;;;5096041;28;20115;-80
2021/09/15 03:54:31;;;;;;;9.20;6.85;;;18.80;99.90;;;;;;5077378;28;20618;-80
2021/09/15 03:56:57;;;;;;;7.90;5.93;;;18.80;99.90;;;;;;5094185;28;20105;-80
2021/09/15 03:59:23;;;;;;;8.73;6.20;;;18.70;99.90;;;;;;5094469;28;20484;-80
2021/09/15 04:01:48;;;;;;;9.35;7.00;;;18.60;99.90;;;;;;5095951;28;20050;-80
2021/09/15 04:04:14;;;;;;;10.32;7.18;;;18.60;99.90;;;;;;5060614;28;20027;-81
2021/09/15 04:06:40;;;;;;;7.65;6.40;;;19.40;99.90;;;;;;5078187;28;20038;-79
2021/09/15 04:09:06;;;;;;;11.90;7.32;;;19.20;99.90;;;;;;5081561;28;20032;-80
2021/09/15 04:11:32;;;;;;;12.02;7.28;;;19.60;99.90;;;;;;5083382;28;20110;-80
2021/09/15 04:13:57;;;;;;;7.88;6.50;;;18.60;99.90;;;;;;5100782;28;20063;-80
2021/09/15 04:16:23;;;;;;;8.55;6.25;;;18.60;99.90;;;;;;5083464;28;20042;-81
2021/09/15 04:18:49;;;;;;;8.48;6.70;;;18.60;99.90;;;;;;5117891;28;20027;-81
2021/09/15 04:21:14;;;;;;;10.50;7.38;;;18.70;99.90;;;;;;5117619;28;20023;-78
2021/09/15 04:31:52;;;;;;;10.70;8.20;;;18.60;99.90;;;;;;5117784;28;20039;-80
2021/09/15 04:34:18;;;;;;;10.48;8.35;;;18.60;99.90;;;;;;5116534;28;20032;-81
2021/09/15 04:36:43;;;;;;;9.88;7.97;;;18.50;99.90;;;;;;5116488;28;20085;-79
2021/09/15 04:39:09;;;;;;;14.82;7.78;;;18.50;99.90;;;;;;5091393;28;20339;-80
2021/09/15 04:41:34;;;;;;;9.77;7.80;;;18.70;99.90;;;;;;5094497;28;20028;-79
2021/09/15 04:44:00;;;;;;;12.23;6.57;;;18.60;99.90;;;;;;5100400;28;20029;-80
2021/09/15 04:46:26;;;;;;;9.80;7.15;;;18.50;99.90;;;;;;5100435;28;20028;-79
2021/09/15 04:48:51;;;;;;;10.07;7.28;;;18.50;99.90;;;;;;5099484;28;20089;-80
2021/09/15 04:51:17;;;;;;;9.30;7.22;;;18.60;99.90;;;;;;5080421;28;20035;-78
2021/09/15 04:53:42;;;;;;;11.40;7.80;;;18.40;99.90;;;;;;5118141;28;20023;-79
2021/09/15 04:56:08;;;;;;;12.88;8.32;;;18.40;99.90;;;;;;5106821;28;20054;-78
2021/09/15 04:58:34;;;;;;;12.32;7.93;;;18.30;99.90;;;;;;5107158;28;20028;-79
2021/09/15 05:01:00;;;;;;;11.70;8.30;;;18.40;99.90;;;;;;5123564;28;20023;-79
2021/09/15 05:03:25;;;;;;;10.77;8.60;;;19.20;99.90;;;;;;5123214;28;20024;-79
2021/09/15 05:05:51;;;;;;;10.85;8.68;;;18.50;99.90;;;;;;5082475;28;20048;-80
2021/09/15 05:08:17;;;;;;;12.95;8.40;;;18.30;99.90;;;;;;5068606;28;20028;-81
2021/09/15 05:10:42;;;;;;;13.45;8.70;;;18.30;99.90;;;;;;5102668;28;20020;-79
2021/09/15 05:13:08;;;;;;;14.50;9.30;;;18.30;99.90;;;;;;5104076;28;20035;-80
2021/09/15 05:15:34;;;;;;;17.83;9.70;;;18.30;99.90;;;;;;5102931;28;20031;-80
2021/09/15 05:17:59;;;;;;;12.20;9.20;;;18.30;99.90;;;;;;5106208;28;20024;-80
2021/09/15 05:20:25;;;;;;;12.15;9.35;;;18.60;99.90;;;;;;5088148;28;20031;-80
2021/09/15 05:22:53;;;;;;;13.02;9.95;;;18.30;99.90;;;;;;5106130;28;20024;-80
2021/09/15 05:25:20;;;;;;;11.15;9.73;;;18.30;99.90;;;;;;5105345;28;20015;-80
2021/09/15 05:27:46;;;;;;;13.18;9.23;;;18.40;99.90;;;;;;5122363;28;20027;-79
2021/09/15 05:30:13;;;;;;;11.65;8.80;;;18.50;99.90;;;;;;5102436;28;20053;-79
2021/09/15 05:32:39;;;;;;;10.50;8.55;;;18.40;99.90;;;;;;5104484;28;20035;-79
2021/09/15 05:35:06;;;;;;;10.88;8.57;;;17.70;99.90;;;;;;5086636;28;20032;-79
2021/09/15 05:37:32;;;;;;;12.75;8.32;;;18.50;99.90;;;;;;5086665;28;20055;-79
2021/09/15 05:39:59;;;;;;;9.90;8.90;;;18.70;99.90;;;;;;5120894;28;20387;-80
2021/09/15 05:42:25;;;;;;;14.65;8.80;;;18.50;99.90;;;;;;5070455;28;20028;-80
2021/09/15 05:44:51;;;;;;;13.35;9.38;;;18.50;99.90;;;;;;5086838;28;20457;-80
2021/09/15 05:47:17;;;;;;;10.40;9.07;;;18.50;99.90;;;;;;5115337;28;20067;-79
2021/09/15 05:49:42;;;;;;;11.05;8.98;;;18.50;99.90;;;;;;5085392;28;20036;-80
2021/09/15 05:52:08;;;;;;;11.95;8.93;;;18.80;99.90;;;;;;5070649;28;20032;-80
2021/09/15 05:54:33;;;;;;;15.00;9.60;;;18.60;99.90;;;;;;5105991;28;20114;-79
2021/09/15 05:56:59;;;;;;;11.55;8.32;;;18.90;99.90;;;;;;5090652;28;20032;-79
2021/09/15 05:59:25;;;;;;;11.57;7.85;;;18.70;99.90;;;;;;5124512;28;20046;-79
2021/09/15 06:01:50;;;;;;;9.27;7.85;;;18.60;99.90;;;;;;5108230;28;20059;-79
2021/09/15 06:04:16;;;;;;;12.15;7.68;;;18.60;99.90;;;;;;5066147;28;20043;-78
2021/09/15 06:06:42;;;;;;;13.77;8.93;;;18.80;99.90;;;;;;5119760;28;20030;-80
2021/09/15 06:09:07;;;;;;;13.15;8.32;;;18.60;99.90;;;;;;5072150;28;20041;-81
2021/09/15 06:11:33;;;;;;;12.15;7.78;;;18.60;99.90;;;;;;5103612;28;20028;-81
2021/09/15 06:13:59;;;;;;;9.68;7.75;;;18.60;99.90;;;;;;5074541;28;20039;-80
2021/09/15 06:16:24;;;;;;;11.95;8.45;;;18.60;99.90;;;;;;5106120;28;20500;-79
2021/09/15 06:18:51;;;;;;;13.63;8.70;;;19.40;99.90;;;;;;5118683;28;20027;-77
2021/09/15 06:21:17;;;;;;;15.13;8.68;;;17.30;99.90;;;;;;5119354;28;20035;-79
2021/09/15 06:23:44;;;;;;;13.88;9.32;;;19.40;99.90;;;;;;5102451;28;20492;-79
2021/09/15 06:26:10;;;;;;;11.70;8.35;;;18.90;99.90;;;;;;5120340;28;20045;-78
2021/09/15 06:28:36;;;;;;;10.82;8.18;;;18.80;99.90;;;;;;5120023;28;20020;-79
2021/09/15 06:31:02;;;;;;;10.20;8.23;;;17.80;99.90;;;;;;5101682;28;20039;-79
2021/09/15 06:33:28;;;;;;;12.93;8.27;;;18.90;99.90;;;;;;5065440;28;20032;-78
2021/09/15 06:35:54;;;;;;;10.13;8.48;;;19.00;99.90;;;;;;5081530;28;20518;-78
2021/09/15 06:38:20;;;;;;;10.43;7.70;;;19.00;99.90;;;;;;5095765;28;20060;-78
2021/09/15 06:40:46;;;;;;;11.65;8.38;;;19.00;99.90;;;;;;5119059;28;20095;-79
2021/09/15 06:43:12;;;;;;;10.70;7.80;;;19.30;99.90;;;;;;5103726;28;20054;-79
2021/09/15 06:45:37;;;;;;;10.90;8.10;;;19.20;99.90;;;;;;5099045;28;20400;-78
2021/09/15 06:48:03;;;;;;;12.13;7.80;;;19.40;99.90;;;;;;5097931;28;20028;-78
2021/09/15 06:50:29;;;;;;;12.02;7.80;;;19.20;99.90;;;;;;5096779;28;20051;-79
2021/09/15 06:52:55;;;;;;;10.65;7.40;;;19.30;99.90;;;;;;5092270;28;20028;-80
2021/09/15 06:55:23;;;;;;;11.68;7.22;;;19.90;99.90;;;;;;5100090;28;20031;-78
2021/09/15 06:57:49;;;;;;;9.10;6.75;;;19.50;99.90;;;;;;5105218;28;20036;-78
2021/09/15 07:00:18;;;;;;;9.15;7.28;;;19.70;99.90;;;;;;5085705;28;20024;-78
2021/09/15 07:02:44;;;;;;;10.55;7.05;;;19.60;99.90;;;;;;5116460;28;20016;-78
2021/09/15 07:05:10;;;;;;;11.30;7.28;;;19.80;99.90;;;;;;5099430;28;20092;-78
2021/09/15 07:07:35;;;;;;;9.93;6.43;;;19.80;99.90;;;;;;5118581;28;20023;-80
2021/09/15 07:10:02;;;;;;;10.77;6.43;;;19.90;99.90;;;;;;5106728;28;20028;-80
2021/09/15 07:12:28;;;;;;;10.23;6.38;;;20.10;99.90;;;;;;5104475;28;20031;-80
2021/09/15 07:14:54;;;;;;;9.40;6.80;;;20.20;99.90;;;;;;5113074;28;20083;-80
2021/09/15 07:17:19;;;;;;;12.55;6.93;;;20.90;99.90;;;;;;5118325;28;20074;-79
2021/09/15 07:19:45;;;;;;;7.70;5.82;;;20.50;99.90;;;;;;5117835;28;20028;-79
2021/09/15 07:22:10;;;;;;;7.40;5.47;;;20.50;99.90;;;;;;5104621;28;20027;-79
2021/09/15 07:24:36;;;;;;;7.60;5.65;;;20.70;99.90;;;;;;5081570;28;20451;-79
2021/09/15 07:27:02;;;;;;;6.68;5.45;;;20.90;99.90;;;;;;5116541;28;20028;-80
2021/09/15 07:29:27;;;;;;;7.78;5.05;;;20.90;99.90;;;;;;5098083;28;20031;-80
2021/09/15 07:31:53;;;;;;;7.40;5.15;;;20.90;99.90;;;;;;5115212;28;20019;-81
2021/09/15 07:34:19;;;;;;;8.07;5.47;;;20.90;99.90;;;;;;5103826;28;21426;-81
2021/09/15 07:36:44;;;;;;;6.28;4.80;;;21.00;99.90;;;;;;5077919;28;20077;-80
2021/09/15 07:39:10;;;;;;;6.47;5.50;;;20.90;99.90;;;;;;5103459;28;20028;-80
2021/09/15 07:41:35;;;;;;;6.10;5.18;;;21.10;99.90;;;;;;5095023;28;20035;-81
2021/09/15 07:44:01;;;;;;;7.05;5.20;;;20.90;99.90;;;;;;5061893;28;20432;-82
2021/09/15 07:46:27;;;;;;;8.30;5.63;;;20.80;99.90;;;;;;5078542;28;20024;-81
2021/09/15 07:48:53;;;;;;;7.43;5.53;;;20.80;99.90;;;;;;5097307;28;20387;-81
2021/09/15 07:51:20;;;;;;;10.00;5.97;;;21.40;99.90;;;;;;5078753;28;20029;-81
2021/09/15 07:53:46;;;;;;;11.27;6.65;;;21.50;99.90;;;;;;5062558;28;20499;-80
2021/09/15 07:56:12;;;;;;;7.82;6.15;;;20.90;99.90;;;;;;5078652;28;20032;-81
2021/09/15 07:58:38;;;;;;;9.23;6.28;;;20.50;99.90;;;;;;5094706;28;20107;-80
2021/09/15 08:01:05;;;;;;;9.57;5.80;;;20.40;99.90;;;;;;5093926;28;20020;-80
2021/09/15 08:03:30;;;;;;;8.57;6.60;;;20.40;99.90;;;;;;5076843;28;20074;-80
2021/09/15 08:05:57;;;;;;;7.65;6.55;;;20.30;99.90;;;;;;5060559;28;20024;-80
2021/09/15 08:08:24;;;;;;;8.98;6.85;;;20.20;99.90;;;;;;5089091;28;20028;-79
2021/09/15 08:10:50;;;;;;;9.02;7.45;;;20.30;99.90;;;;;;5096452;28;20118;-78
2021/09/15 08:13:20;;;;;;;11.10;7.22;;;20.40;99.90;;;;;;5096366;28;20205;-78
2021/09/15 08:15:49;;;;;;;8.82;6.75;;;20.40;99.90;;;;;;5075600;28;20077;-79
2021/09/15 08:18:14;;;;;;;9.80;6.45;;;20.40;99.90;;;;;;5095485;28;20054;-80
2021/09/15 08:20:45;;;;;;;9.27;7.22;;;20.40;99.90;;;;;;5078652;28;20034;-80
2021/09/15 08:23:14;;;;;;;12.18;6.78;;;20.90;99.90;;;;;;5080266;28;20034;-80
2021/09/15 08:25:40;;;;;;;10.60;7.28;;;20.30;99.90;;;;;;5114521;28;20030;-79
2021/09/15 08:28:06;;;;;;;10.68;7.47;;;20.50;99.90;;;;;;5113978;28;20150;-78
2021/09/15 08:30:33;;;;;;;9.15;7.30;;;22.60;99.90;;;;;;5095029;28;20023;-79
2021/09/15 08:32:59;;;;;;;10.60;7.35;;;20.40;99.90;;;;;;5096050;28;20111;-79
2021/09/15 08:35:26;;;;;;;9.35;7.78;;;20.40;99.90;;;;;;5114146;28;20047;-80
2021/09/15 08:37:51;;;;;;;9.70;7.28;;;20.40;99.90;;;;;;5114144;28;20167;-79
2021/09/15 08:40:17;;;;;;;12.27;6.75;;;20.60;99.90;;;;;;5092761;28;20035;-78
2021/09/15 08:42:43;;;;;;;6.40;4.40;;;20.40;99.90;;;;;;5114115;28;20026;-78
2021/09/15 08:45:11;;;;;;;6.55;3.97;;;20.40;99.90;;;;;;5115722;28;20039;-78
2021/09/15 08:47:40;;;;;;;7.65;4.55;;;20.20;99.90;;;;;;5114074;28;20111;-78
2021/09/15 08:50:07;;;;;;;7.47;4.03;;;20.00;99.90;;;;;;5113336;28;20032;-77
2021/09/15 08:52:33;;;;;;;4.82;4.32;;;19.90;99.90;;;;;;5093183;28;20118;-79
2021/09/15 08:54:59;;;;;;;6.20;4.50;;;;;;;;;;5074186;28;20082;-78
2021/09/15 08:57:27;;;;;;;7.07;4.88;;;;;;;;;;5092478;28;20056;-78
2021/09/15 08:59:53;;;;;;;6.07;4.82;;;;;;;;;;5092209;28;20103;-78
2021/09/15 09:02:20;;;;;;;9.35;5.15;;;;;;;;;;5092927;28;20101;-78
2021/09/15 09:04:54;;;;;;;7.47;4.57;;;;;;;;;;5112076;28;20385;-79
2021/09/15 09:07:20;;;;;;;6.75;5.00;;;;;;;;;;5112620;28;20504;-79
2021/09/15 09:09:50;;;;;;;6.03;4.38;;;;;;;;;;5112388;28;20077;-78
2021/09/15 09:12:17;;;;;;;8.85;4.60;;;;;;;;;;5112654;28;20031;-78
2021/09/15 09:14:44;;;;;;;8.75;4.68;;;;;;;;;;5075590;28;20028;-78
2021/09/15 09:17:29;;;;;;;7.30;4.60;;;;;;;;;;5102213;28;20080;-78
2021/09/15 09:20:14;;;;;;;7.50;4.63;;;;;;;;;;5112214;28;20047;-78
2021/09/15 09:23:00;;;;;;;6.47;3.95;;;;;;;;;;5111340;28;20103;-78
2021/09/15 09:25:27;;;;;;;8.23;4.18;;;;;;;;;;5113182;28;20472;-79
2021/09/15 09:27:53;;;;;;;10.20;5.03;;;;;;;;;;5111783;28;20019;-80
2021/09/15 09:30:31;;;;;;;10.52;4.03;;;;;;;;;;5112798;28;20099;-80
2021/09/15 09:32:58;;;;;;;7.05;4.18;;;;;;;;;;5112405;28;20031;-78
2021/09/15 09:35:24;;;;;;;8.05;4.38;;;;;;;;;;5113743;28;20035;-79
2021/09/15 09:37:50;;;;;;;9.25;3.88;;;;;;;;;;5113478;28;20034;-78
2021/09/15 09:40:19;;;;;;;6.43;3.10;;;;;;;;;;5114586;28;20090;-79
2021/09/15 09:42:46;;;;;;;6.60;3.13;;;;;;;;;;5117412;27;20510;-79
2021/09/15 09:45:13;;;;;;;5.90;3.55;;;;;;;;;;5082768;28;20131;-80
2021/09/15 09:47:40;;;;;;;5.70;3.00;;;;;;;;;;5118539;28;20027;-81
2021/09/15 09:50:09;;;;;;;5.10;2.97;;;;;;;;;;5119809;28;20024;-81
2021/09/15 09:52:52;;;;;;;5.13;3.25;;;;;;;;;;5103162;28;20496;-82
2021/09/15 09:55:19;;;;;;;3.60;2.70;;;;;;;;;;5102511;28;20118;-81
2021/09/15 09:57:45;;;;;;;4.60;2.50;;;;;;;;;;5119400;28;20023;-80
2021/09/15 10:00:11;;;;;;;5.13;2.70;;;;;;;;;;5082786;28;20023;-81
2021/09/15 10:02:37;;;;;;;6.75;2.83;;;;;;;;;;5101143;28;20065;-81
2021/09/15 10:05:04;;;;;;;4.82;2.85;;;;;;;;;;5101044;28;20027;-81
2021/09/15 10:07:30;;;;;;;4.90;2.45;;;;;;;;;;5118085;28;20707;-80
2021/09/15 10:09:57;;;;;;;4.35;2.50;;;;;;;;;;5119054;28;20020;-79
2021/09/15 10:12:24;;;;;;;3.85;2.83;;;;;;;;;;5119679;28;20031;-79
2021/09/15 10:14:50;;;;;;;5.78;2.72;;;;;;;;;;5101248;28;20032;-80
2021/09/15 10:17:25;;;;;;;5.22;2.63;;;19.90;99.90;;;;;;5117976;28;20027;-81
2021/09/15 10:19:53;;;;;;;6.55;2.90;;;22.10;99.90;;;;;;5100341;28;20430;-79
2021/09/15 10:22:30;;;;;;;6.28;2.53;;;22.20;99.90;;;;;;5098349;28;20031;-79
2021/09/15 10:24:58;;;;;;;6.78;3.10;;;22.30;99.90;;;;;;5115192;28;20023;-80
2021/09/15 10:27:29;;;;;;;10.02;2.95;;;22.30;99.90;;;;;;5117522;28;20383;-80
2021/09/15 10:30:09;;;;;;;6.53;2.63;;;22.40;99.90;;;;;;5096494;28;20056;-80
2021/09/15 10:32:54;;;;;;;4.97;2.45;;;22.60;99.90;;;;;;5097028;28;20028;-79
2021/09/15 10:35:43;;;;;;;5.32;2.70;;;22.50;99.90;;;;;;5096852;28;20028;-80
2021/09/15 10:38:09;;;;;;;5.65;3.10;;;23.00;99.90;;;;;;5108774;28;20035;-80
2021/09/15 10:40:36;;;;;;;4.78;2.95;;;23.20;99.90;;;;;;5117201;28;20492;-80
2021/09/15 10:43:02;;;;;;;7.20;2.53;;;23.40;99.90;;;;;;5126188;28;20024;-82
2021/09/15 10:45:31;;;;;;;8.15;2.92;;;23.40;99.90;;;;;;5128382;28;20020;-78
2021/09/15 10:48:09;;;;;;;4.78;2.10;;;23.20;99.90;;;;;;5097496;28;20032;-79
2021/09/15 10:50:40;;;;;;;4.72;2.67;;;23.00;99.90;;;;;;5127042;28;20472;-81
2021/09/15 10:53:19;;;;;;;6.57;1.90;;;23.10;99.90;;;;;;5117374;28;20038;-80
2021/09/15 10:55:44;;;;;;;4.45;1.83;;;23.00;99.90;;;;;;5104172;28;20016;-79
2021/09/15 10:58:25;;;;;;;4.47;2.13;;;23.10;99.90;;;;;;5110532;28;20508;-80
2021/09/15 11:00:58;;;;;;;5.47;2.13;;;23.10;99.90;;;;;;5130826;28;20041;-82
2021/09/15 11:03:28;;;;;;;4.55;2.20;;;23.00;99.90;;;;;;5115294;28;20484;-80
2021/09/15 11:05:54;;;;;;;4.65;2.17;;;23.10;99.90;;;;;;5090885;28;20027;-77
2021/09/15 11:08:32;;;;;;;4.55;2.78;;;23.40;99.90;;;;;;5119910;28;20028;-78
2021/09/15 11:10:57;;;;;;;6.13;2.58;;;23.20;99.90;;;;;;5095076;28;20028;-78
2021/09/15 11:13:30;;;;;;;3.53;2.30;;;23.40;99.90;;;;;;5120830;28;20039;-77
2021/09/15 11:15:56;;;;;;;4.50;2.30;;;23.50;99.90;;;;;;5112564;28;20023;-78
2021/09/15 11:18:24;;;;;;;2.70;2.22;;;23.40;99.90;;;;;;5114895;28;20030;-77
2021/09/15 11:20:54;;;;;;;3.90;2.30;;;23.30;99.90;;;;;;5121695;28;20031;-79
2021/09/15 11:23:20;;;;;;;5.47;2.22;;;23.30;99.90;;;;;;5082275;28;20012;-76
2021/09/15 11:25:49;;;;;;;2.97;1.98;;;23.20;99.90;;;;;;5111326;28;20027;-77
2021/09/15 11:28:17;;;;;;;2.25;1.70;;;23.20;99.90;;;;;;5112728;28;20019;-77
2021/09/15 11:31:04;;;;;;;3.80;1.90;;;22.90;99.90;;;;;;5112506;28;20028;-77
2021/09/15 11:33:38;;;;;;;4.13;2.45;;;22.90;99.90;;;;;;5112433;28;20031;-78
2021/09/15 11:36:07;;;;;;;3.67;1.83;;;23.00;99.90;;;;;;5113508;28;20046;-78
2021/09/15 11:38:38;;;;;;;3.10;1.70;;;22.90;99.90;;;;;;5113772;28;20047;-78
2021/09/15 11:41:10;;;;;;;6.88;1.88;;;22.80;99.90;;;;;;5095499;28;20020;-77
2021/09/15 11:43:36;;;;;;;2.70;1.60;;;23.00;99.90;;;;;;5113412;27;20039;-77
2021/09/15 11:46:02;;;;;;;5.15;2.13;;;22.90;99.90;;;;;;5115358;28;20023;-78
2021/09/15 11:48:32;;;;;;;4.68;1.92;;;22.90;99.90;;;;;;5112106;28;20020;-78
2021/09/15 11:50:59;;;;;;;3.90;1.83;;;23.10;99.90;;;;;;5115827;27;20019;-78
2021/09/15 11:53:27;;;;;;;3.20;1.70;;;23.30;99.90;;;;;;5133911;27;20031;-79
2021/09/15 11:56:03;;;;;;;2.60;1.80;;;23.30;99.90;;;;;;5134136;27;20103;-77
2021/09/15 11:58:29;;;;;;;3.33;1.70;;;23.50;99.90;;;;;;5115668;27;20102;-77
2021/09/15 12:00:55;;;;;;;4.18;2.08;;;23.30;99.90;;;;;;5092303;28;20469;-77
2021/09/15 12:03:29;;;;;;;4.10;2.35;;;23.40;99.90;;;;;;5092155;28;20032;-79
2021/09/15 12:05:59;;;;;;;3.00;1.77;;;23.40;99.90;;;;;;5092172;28;20044;-77
2021/09/15 12:08:26;;;;;;;5.45;2.38;;;23.50;99.90;;;;;;5101516;28;20049;-77
2021/09/15 12:10:58;;;;;;;8.77;2.67;;;23.50;99.90;;;;;;5093739;28;20028;-79
2021/09/15 12:13:31;;;;;;;;;;;23.40;99.90;;;;;;5093274;28;20031;-78
2021/09/15 12:15:57;;;;;;;3.42;1.92;;;23.40;99.90;;;;;;5112581;28;19908;-78
2021/09/15 12:18:37;;;;;;;2.95;2.15;;;23.30;99.90;;;;;;5112358;28;20032;-77
2021/09/15 12:21:25;;;;;;;4.78;2.00;;;23.20;99.90;;;;;;5106646;28;20483;-77
2021/09/15 12:24:04;;;;;;;5.45;2.30;;;23.20;99.90;;;;;;5097371;28;20065;-77
2021/09/15 12:26:30;;;;;;;5.20;2.10;;;23.30;99.90;;;;;;5114353;28;20026;-80
2021/09/15 12:29:08;;;;;;;5.57;2.25;;;23.30;99.90;;;;;;5113452;28;20024;-78
2021/09/15 12:31:41;;;;;;;4.13;2.45;;;23.40;99.90;;;;;;5114095;28;20051;-79
2021/09/15 12:34:08;;;;;;;3.63;2.60;;;23.40;99.90;;;;;;5098747;28;20444;-78
2021/09/15 12:36:34;;;;;;;3.45;2.20;;;23.40;99.90;;;;;;5116532;28;20092;-80
2021/09/15 12:39:03;;;;;;;3.85;2.17;;;23.40;99.90;;;;;;5080682;28;20404;-78
2021/09/15 12:41:48;;;;;;;4.80;2.10;;;23.20;99.90;;;;;;5094203;28;20438;-79
2021/09/15 12:44:14;;;;;;;7.13;2.20;;;23.10;99.90;;;;;;5077482;28;20032;-82
2021/09/15 12:46:51;;;;;;;3.40;1.90;;;23.10;99.90;;;;;;5093312;28;20145;-78
2021/09/15 12:49:41;;;;;;;3.08;1.98;;;23.10;99.90;;;;;;5078623;28;20047;-78
2021/09/15 12:52:15;;;;;;;7.38;2.15;;;23.00;99.90;;;;;;5117090;28;20063;-80
2021/09/15 12:54:52;;;;;;;5.18;2.05;;;22.80;99.90;;;;;;5105254;28;20020;-79
2021/09/15 12:57:31;;;;;;;4.55;1.98;;;22.70;99.90;;;;;;5105283;28;20028;-79
2021/09/15 13:00:23;;;;;;;2.33;2.05;;;22.70;99.90;;;;;;5115399;28;20035;-79
2021/09/15 13:03:01;;;;;;;3.77;2.07;;;22.90;99.90;;;;;;5114120;28;20028;-79
2021/09/15 13:05:27;;;;;;;6.05;2.67;;;22.80;99.90;;;;;;5114529;28;20024;-79